sensor_id;sensor_type;location;lat;lon;timestamp;temperature;humidity
5118;DHT22;2578;51.622;7.046;2023-07-08T00:00:23;18.80;92.20
5118;DHT22;2578;51.622;7.046;2023-07-08T00:02:50;18.70;92.10
5118;DHT22;2578;51.622;7.046;2023-07-08T00:05:18;18.70;92.70
5118;DHT22;2578;51.622;7.046;2023-07-08T00:07:45;18.60;93.40
5118;DHT22;2578;51.622;7.046;2023-07-08T00:12:40;18.50;94.30
5118;DHT22;2578;51.622;7.046;2023-07-08T00:15:06;18.60;94.50
5118;DHT22;2578;51.622;7.046;2023-07-08T00:17:32;18.60;94.90
5118;DHT22;2578;51.622;7.046;2023-07-08T00:19:58;18.60;95.20
5118;DHT22;2578;51.622;7.046;2023-07-08T00:22:23;19.70;96.10
5118;DHT22;2578;51.622;7.046;2023-07-08T00:24:50;18.60;95.60
5118;DHT22;2578;51.622;7.046;2023-07-08T00:27:17;18.60;96.20
5118;DHT22;2578;51.622;7.046;2023-07-08T00:29:42;18.60;96.70
5118;DHT22;2578;51.622;7.046;2023-07-08T00:32:13;18.60;96.70
5118;DHT22;2578;51.622;7.046;2023-07-08T00:34:39;18.60;95.70
5118;DHT22;2578;51.622;7.046;2023-07-08T00:37:05;18.60;96.10
5118;DHT22;2578;51.622;7.046;2023-07-08T00:39:33;18.70;96.30
5118;DHT22;2578;51.622;7.046;2023-07-08T00:42:01;18.80;94.80
5118;DHT22;2578;51.622;7.046;2023-07-08T00:44:32;18.80;94.70
5118;DHT22;2578;51.622;7.046;2023-07-08T00:47:07;18.80;95.00
5118;DHT22;2578;51.622;7.046;2023-07-08T00:49:49;18.80;95.50
5118;DHT22;2578;51.622;7.046;2023-07-08T00:52:29;18.90;94.00
5118;DHT22;2578;51.622;7.046;2023-07-08T00:54:58;19.00;93.50
5118;DHT22;2578;51.622;7.046;2023-07-08T00:57:30;19.00;93.80
5118;DHT22;2578;51.622;7.046;2023-07-08T01:00:04;19.10;92.30
5118;DHT22;2578;51.622;7.046;2023-07-08T01:02:33;19.10;91.70
5118;DHT22;2578;51.622;7.046;2023-07-08T01:05:09;19.20;90.90
5118;DHT22;2578;51.622;7.046;2023-07-08T01:07:37;19.30;90.60
5118;DHT22;2578;51.622;7.046;2023-07-08T01:10:07;19.40;89.60
5118;DHT22;2578;51.622;7.046;2023-07-08T01:12:41;19.40;90.60
5118;DHT22;2578;51.622;7.046;2023-07-08T01:15:09;19.40;89.50
5118;DHT22;2578;51.622;7.046;2023-07-08T01:17:36;19.40;87.30
5118;DHT22;2578;51.622;7.046;2023-07-08T01:20:04;19.40;87.50
5118;DHT22;2578;51.622;7.046;2023-07-08T01:22:37;19.40;87.90
5118;DHT22;2578;51.622;7.046;2023-07-08T01:25:03;19.50;89.10
5118;DHT22;2578;51.622;7.046;2023-07-08T01:27:35;19.40;89.80
5118;DHT22;2578;51.622;7.046;2023-07-08T01:30:02;19.40;89.50
5118;DHT22;2578;51.622;7.046;2023-07-08T01:32:28;19.40;90.00
5118;DHT22;2578;51.622;7.046;2023-07-08T01:34:59;19.40;90.30
5118;DHT22;2578;51.622;7.046;2023-07-08T01:37:36;19.40;90.00
5118;DHT22;2578;51.622;7.046;2023-07-08T01:42:47;19.40;90.60
5118;DHT22;2578;51.622;7.046;2023-07-08T01:45:16;19.40;88.10
5118;DHT22;2578;51.622;7.046;2023-07-08T01:47:44;19.40;89.30
5118;DHT22;2578;51.622;7.046;2023-07-08T01:50:11;19.30;89.60
5118;DHT22;2578;51.622;7.046;2023-07-08T01:52:37;19.40;90.20
5118;DHT22;2578;51.622;7.046;2023-07-08T01:55:04;19.40;89.90
5118;DHT22;2578;51.622;7.046;2023-07-08T01:57:29;19.30;90.40
5118;DHT22;2578;51.622;7.046;2023-07-08T01:59:55;19.30;90.50
5118;DHT22;2578;51.622;7.046;2023-07-08T02:02:20;19.30;90.40
5118;DHT22;2578;51.622;7.046;2023-07-08T02:04:49;19.30;89.90
5118;DHT22;2578;51.622;7.046;2023-07-08T02:07:15;19.20;90.20
5118;DHT22;2578;51.622;7.046;2023-07-08T02:09:41;19.30;89.60
5118;DHT22;2578;51.622;7.046;2023-07-08T02:12:07;19.30;88.50
5118;DHT22;2578;51.622;7.046;2023-07-08T02:14:32;19.20;90.00
5118;DHT22;2578;51.622;7.046;2023-07-08T02:16:58;19.20;90.10
5118;DHT22;2578;51.622;7.046;2023-07-08T02:19:24;19.20;90.90
5118;DHT22;2578;51.622;7.046;2023-07-08T02:21:50;19.20;91.70
5118;DHT22;2578;51.622;7.046;2023-07-08T02:24:17;19.20;92.30
5118;DHT22;2578;51.622;7.046;2023-07-08T02:26:43;19.20;92.60
5118;DHT22;2578;51.622;7.046;2023-07-08T02:29:08;19.10;93.10
5118;DHT22;2578;51.622;7.046;2023-07-08T02:31:34;19.00;93.20
5118;DHT22;2578;51.622;7.046;2023-07-08T02:34:00;19.00;93.50
5118;DHT22;2578;51.622;7.046;2023-07-08T02:36:27;19.00;92.70
5118;DHT22;2578;51.622;7.046;2023-07-08T02:38:53;19.00;92.70
5118;DHT22;2578;51.622;7.046;2023-07-08T02:41:18;19.00;93.00
5118;DHT22;2578;51.622;7.046;2023-07-08T02:43:44;19.00;92.70
5118;DHT22;2578;51.622;7.046;2023-07-08T02:46:09;19.00;92.90
5118;DHT22;2578;51.622;7.046;2023-07-08T02:48:35;18.90;93.50
5118;DHT22;2578;51.622;7.046;2023-07-08T02:51:05;18.80;93.90
5118;DHT22;2578;51.622;7.046;2023-07-08T02:53:31;18.70;94.30
5118;DHT22;2578;51.622;7.046;2023-07-08T02:55:57;18.50;95.00
5118;DHT22;2578;51.622;7.046;2023-07-08T02:58:23;18.30;96.30
5118;DHT22;2578;51.622;7.046;2023-07-08T03:00:56;18.20;96.60
5118;DHT22;2578;51.622;7.046;2023-07-08T03:03:24;18.10;97.10
5118;DHT22;2578;51.622;7.046;2023-07-08T03:08:21;18.10;98.80
5118;DHT22;2578;51.622;7.046;2023-07-08T03:10:56;18.00;99.90
5118;DHT22;2578;51.622;7.046;2023-07-08T03:13:22;18.00;99.90
5118;DHT22;2578;51.622;7.046;2023-07-08T03:15:47;17.90;99.90
5118;DHT22;2578;51.622;7.046;2023-07-08T03:18:13;17.80;99.90
5118;DHT22;2578;51.622;7.046;2023-07-08T03:20:42;17.70;99.90
5118;DHT22;2578;51.622;7.046;2023-07-08T03:23:12;17.60;99.90
5118;DHT22;2578;51.622;7.046;2023-07-08T03:25:38;17.60;99.90
5118;DHT22;2578;51.622;7.046;2023-07-08T03:28:04;17.50;99.90
5118;DHT22;2578;51.622;7.046;2023-07-08T03:30:33;17.60;99.90
5118;DHT22;2578;51.622;7.046;2023-07-08T03:33:00;17.60;99.90
5118;DHT22;2578;51.622;7.046;2023-07-08T03:37:52;17.60;99.90
5118;DHT22;2578;51.622;7.046;2023-07-08T03:42:44;17.40;99.90
5118;DHT22;2578;51.622;7.046;2023-07-08T03:45:10;17.40;99.90
5118;DHT22;2578;51.622;7.046;2023-07-08T03:47:36;17.50;99.90
5118;DHT22;2578;51.622;7.046;2023-07-08T03:50:01;17.50;99.90
5118;DHT22;2578;51.622;7.046;2023-07-08T03:52:27;17.40;99.90
5118;DHT22;2578;51.622;7.046;2023-07-08T03:54:53;17.30;99.90
5118;DHT22;2578;51.622;7.046;2023-07-08T03:57:18;17.20;99.90
5118;DHT22;2578;51.622;7.046;2023-07-08T03:59:44;17.30;99.90
5118;DHT22;2578;51.622;7.046;2023-07-08T04:02:12;17.40;99.90
5118;DHT22;2578;51.622;7.046;2023-07-08T04:04:38;17.50;99.90
5118;DHT22;2578;51.622;7.046;2023-07-08T04:07:05;17.60;99.90
5118;DHT22;2578;51.622;7.046;2023-07-08T04:09:31;17.60;99.90
5118;DHT22;2578;51.622;7.046;2023-07-08T04:11:57;17.70;99.90
5118;DHT22;2578;51.622;7.046;2023-07-08T04:14:23;17.80;99.90
5118;DHT22;2578;51.622;7.046;2023-07-08T04:16:50;17.80;99.90
5118;DHT22;2578;51.622;7.046;2023-07-08T04:19:17;17.90;99.90
5118;DHT22;2578;51.622;7.046;2023-07-08T04:21:44;17.90;99.90
5118;DHT22;2578;51.622;7.046;2023-07-08T04:24:14;18.00;99.90
5118;DHT22;2578;51.622;7.046;2023-07-08T04:26:40;18.00;99.90
5118;DHT22;2578;51.622;7.046;2023-07-08T04:29:14;18.10;99.90
5118;DHT22;2578;51.622;7.046;2023-07-08T04:31:40;18.10;99.90
5118;DHT22;2578;51.622;7.046;2023-07-08T04:36:32;18.30;99.90
5118;DHT22;2578;51.622;7.046;2023-07-08T04:38:59;18.30;99.90
5118;DHT22;2578;51.622;7.046;2023-07-08T04:41:25;18.40;99.90
5118;DHT22;2578;51.622;7.046;2023-07-08T04:43:52;18.60;99.90
5118;DHT22;2578;51.622;7.046;2023-07-08T04:46:38;18.70;99.90
5118;DHT22;2578;51.622;7.046;2023-07-08T04:49:06;18.80;99.90
5118;DHT22;2578;51.622;7.046;2023-07-08T04:51:32;19.00;99.90
5118;DHT22;2578;51.622;7.046;2023-07-08T04:53:58;19.10;99.90
5118;DHT22;2578;51.622;7.046;2023-07-08T04:59:04;19.30;99.90
5118;DHT22;2578;51.622;7.046;2023-07-08T05:01:30;19.50;99.90
5118;DHT22;2578;51.622;7.046;2023-07-08T05:03:56;19.60;99.90
5118;DHT22;2578;51.622;7.046;2023-07-08T05:06:22;19.80;97.70
5118;DHT22;2578;51.622;7.046;2023-07-08T05:08:47;19.90;97.00
5118;DHT22;2578;51.622;7.046;2023-07-08T05:11:13;20.10;97.10
5118;DHT22;2578;51.622;7.046;2023-07-08T05:13:38;20.10;96.40
5118;DHT22;2578;51.622;7.046;2023-07-08T05:16:04;20.30;95.70
5118;DHT22;2578;51.622;7.046;2023-07-08T05:18:30;20.50;95.60
5118;DHT22;2578;51.622;7.046;2023-07-08T05:20:56;20.80;94.00
5118;DHT22;2578;51.622;7.046;2023-07-08T05:23:22;21.10;93.10
5118;DHT22;2578;51.622;7.046;2023-07-08T05:25:47;21.30;90.10
5118;DHT22;2578;51.622;7.046;2023-07-08T05:28:13;21.40;89.70
5118;DHT22;2578;51.622;7.046;2023-07-08T05:30:42;21.70;87.20
5118;DHT22;2578;51.622;7.046;2023-07-08T05:33:08;21.90;84.00
5118;DHT22;2578;51.622;7.046;2023-07-08T05:35:34;22.40;79.80
5118;DHT22;2578;51.622;7.046;2023-07-08T05:38:01;22.60;80.00
5118;DHT22;2578;51.622;7.046;2023-07-08T05:40:27;22.90;75.40
5118;DHT22;2578;51.622;7.046;2023-07-08T05:42:52;23.30;72.50
5118;DHT22;2578;51.622;7.046;2023-07-08T05:45:18;23.60;55.80
5118;DHT22;2578;51.622;7.046;2023-07-08T05:47:43;23.70;57.60
5118;DHT22;2578;51.622;7.046;2023-07-08T05:50:09;23.80;50.90
5118;DHT22;2578;51.622;7.046;2023-07-08T05:52:35;23.70;49.20
5118;DHT22;2578;51.622;7.046;2023-07-08T05:55:00;23.70;46.70
5118;DHT22;2578;51.622;7.046;2023-07-08T05:57:26;23.70;48.70
5118;DHT22;2578;51.622;7.046;2023-07-08T05:59:51;23.80;47.30
5118;DHT22;2578;51.622;7.046;2023-07-08T06:02:18;23.70;44.90
5118;DHT22;2578;51.622;7.046;2023-07-08T06:04:47;23.70;39.30
5118;DHT22;2578;51.622;7.046;2023-07-08T06:07:12;23.70;40.00
5118;DHT22;2578;51.622;7.046;2023-07-08T06:09:38;23.80;38.30
5118;DHT22;2578;51.622;7.046;2023-07-08T06:12:04;24.00;38.80
5118;DHT22;2578;51.622;7.046;2023-07-08T06:14:29;23.90;35.10
5118;DHT22;2578;51.622;7.046;2023-07-08T06:16:58;23.80;34.30
5118;DHT22;2578;51.622;7.046;2023-07-08T06:19:24;23.70;38.20
5118;DHT22;2578;51.622;7.046;2023-07-08T06:21:49;23.80;37.40
5118;DHT22;2578;51.622;7.046;2023-07-08T06:24:15;23.90;32.90
5118;DHT22;2578;51.622;7.046;2023-07-08T06:26:41;23.90;33.50
5118;DHT22;2578;51.622;7.046;2023-07-08T06:29:06;24.00;33.10
5118;DHT22;2578;51.622;7.046;2023-07-08T06:31:32;24.50;28.20
5118;DHT22;2578;51.622;7.046;2023-07-08T06:33:59;24.50;28.20
5118;DHT22;2578;51.622;7.046;2023-07-08T06:36:25;24.60;24.60
5118;DHT22;2578;51.622;7.046;2023-07-08T06:38:50;24.70;26.00
5118;DHT22;2578;51.622;7.046;2023-07-08T06:41:16;24.80;25.30
5118;DHT22;2578;51.622;7.046;2023-07-08T06:43:41;25.00;23.30
5118;DHT22;2578;51.622;7.046;2023-07-08T06:46:07;25.20;22.90
5118;DHT22;2578;51.622;7.046;2023-07-08T06:48:33;25.30;23.50
5118;DHT22;2578;51.622;7.046;2023-07-08T06:50:58;25.70;23.00
5118;DHT22;2578;51.622;7.046;2023-07-08T06:53:24;25.80;21.90
5118;DHT22;2578;51.622;7.046;2023-07-08T06:55:50;26.10;19.60
5118;DHT22;2578;51.622;7.046;2023-07-08T06:58:16;26.30;18.20
5118;DHT22;2578;51.622;7.046;2023-07-08T07:00:42;26.30;17.60
5118;DHT22;2578;51.622;7.046;2023-07-08T07:03:08;26.70;15.50
5118;DHT22;2578;51.622;7.046;2023-07-08T07:05:34;27.00;10.60
5118;DHT22;2578;51.622;7.046;2023-07-08T07:07:59;27.20;11.70
5118;DHT22;2578;51.622;7.046;2023-07-08T07:10:25;27.50;10.20
5118;DHT22;2578;51.622;7.046;2023-07-08T07:12:50;27.70;6.40
5118;DHT22;2578;51.622;7.046;2023-07-08T07:15:16;28.00;5.40
5118;DHT22;2578;51.622;7.046;2023-07-08T07:17:42;28.10;1.00
5118;DHT22;2578;51.622;7.046;2023-07-08T07:20:08;28.30;1.00
5118;DHT22;2578;51.622;7.046;2023-07-08T07:22:35;28.50;1.40
5118;DHT22;2578;51.622;7.046;2023-07-08T07:25:01;28.90;1.00
5118;DHT22;2578;51.622;7.046;2023-07-08T07:27:26;29.00;1.00
5118;DHT22;2578;51.622;7.046;2023-07-08T07:29:52;29.10;1.00
5118;DHT22;2578;51.622;7.046;2023-07-08T07:32:22;29.30;1.00
5118;DHT22;2578;51.622;7.046;2023-07-08T07:34:49;29.30;1.00
5118;DHT22;2578;51.622;7.046;2023-07-08T07:37:16;29.70;1.00
5118;DHT22;2578;51.622;7.046;2023-07-08T07:39:42;29.90;1.00
5118;DHT22;2578;51.622;7.046;2023-07-08T07:42:09;29.90;1.00
5118;DHT22;2578;51.622;7.046;2023-07-08T07:44:35;29.90;1.00
5118;DHT22;2578;51.622;7.046;2023-07-08T07:47:02;29.90;1.00
5118;DHT22;2578;51.622;7.046;2023-07-08T07:49:28;29.60;1.00
5118;DHT22;2578;51.622;7.046;2023-07-08T07:51:54;29.70;1.00
5118;DHT22;2578;51.622;7.046;2023-07-08T07:54:19;30.10;1.00
5118;DHT22;2578;51.622;7.046;2023-07-08T07:56:45;30.10;1.00
5118;DHT22;2578;51.622;7.046;2023-07-08T07:59:11;30.10;1.00
5118;DHT22;2578;51.622;7.046;2023-07-08T08:01:37;30.20;1.00
5118;DHT22;2578;51.622;7.046;2023-07-08T08:04:02;30.40;1.00
5118;DHT22;2578;51.622;7.046;2023-07-08T08:06:28;30.40;1.00
5118;DHT22;2578;51.622;7.046;2023-07-08T08:08:54;30.70;1.00
5118;DHT22;2578;51.622;7.046;2023-07-08T08:11:19;30.80;1.00
5118;DHT22;2578;51.622;7.046;2023-07-08T08:13:45;30.80;1.00
5118;DHT22;2578;51.622;7.046;2023-07-08T08:16:10;31.00;1.00
5118;DHT22;2578;51.622;7.046;2023-07-08T08:18:36;31.20;1.00
5118;DHT22;2578;51.622;7.046;2023-07-08T08:21:02;31.80;1.00
5118;DHT22;2578;51.622;7.046;2023-07-08T08:23:28;31.70;1.00
5118;DHT22;2578;51.622;7.046;2023-07-08T08:25:53;31.80;1.00
5118;DHT22;2578;51.622;7.046;2023-07-08T08:28:19;31.60;1.00
5118;DHT22;2578;51.622;7.046;2023-07-08T08:30:51;31.30;1.00
5118;DHT22;2578;51.622;7.046;2023-07-08T08:33:18;31.40;1.00
5118;DHT22;2578;51.622;7.046;2023-07-08T08:35:44;31.30;1.00
5118;DHT22;2578;51.622;7.046;2023-07-08T08:38:10;31.30;1.00
5118;DHT22;2578;51.622;7.046;2023-07-08T08:40:36;31.40;1.00
5118;DHT22;2578;51.622;7.046;2023-07-08T08:45:36;31.50;1.00
5118;DHT22;2578;51.622;7.046;2023-07-08T08:48:08;31.60;1.00
5118;DHT22;2578;51.622;7.046;2023-07-08T08:50:58;31.50;1.00
5118;DHT22;2578;51.622;7.046;2023-07-08T08:53:26;31.40;1.00
5118;DHT22;2578;51.622;7.046;2023-07-08T08:59:17;32.00;1.00
5118;DHT22;2578;51.622;7.046;2023-07-08T09:01:49;32.00;1.00
5118;DHT22;2578;51.622;7.046;2023-07-08T09:04:20;35.40;1.00
5118;DHT22;2578;51.622;7.046;2023-07-08T09:06:47;32.50;1.00
5118;DHT22;2578;51.622;7.046;2023-07-08T09:09:28;32.80;1.00
5118;DHT22;2578;51.622;7.046;2023-07-08T09:12:18;32.60;1.00
5118;DHT22;2578;51.622;7.046;2023-07-08T09:14:46;33.10;1.00
5118;DHT22;2578;51.622;7.046;2023-07-08T09:17:28;33.10;1.00
5118;DHT22;2578;51.622;7.046;2023-07-08T09:20:06;33.20;1.00
5118;DHT22;2578;51.622;7.046;2023-07-08T09:25:34;33.00;1.00
5118;DHT22;2578;51.622;7.046;2023-07-08T09:28:01;33.40;1.00
5118;DHT22;2578;51.622;7.046;2023-07-08T09:30:27;33.40;1.00
5118;DHT22;2578;51.622;7.046;2023-07-08T09:32:57;33.50;1.00
5118;DHT22;2578;51.622;7.046;2023-07-08T09:35:28;33.80;1.00
5118;DHT22;2578;51.622;7.046;2023-07-08T09:37:54;33.90;1.00
5118;DHT22;2578;51.622;7.046;2023-07-08T09:40:30;34.00;1.00
5118;DHT22;2578;51.622;7.046;2023-07-08T09:45:46;34.60;1.00
5118;DHT22;2578;51.622;7.046;2023-07-08T09:48:33;34.80;1.00
5118;DHT22;2578;51.622;7.046;2023-07-08T09:50:59;34.80;1.00
5118;DHT22;2578;51.622;7.046;2023-07-08T09:53:25;35.00;1.00
5118;DHT22;2578;51.622;7.046;2023-07-08T09:55:53;34.70;1.00
5118;DHT22;2578;51.622;7.046;2023-07-08T10:01:01;35.00;1.00
5118;DHT22;2578;51.622;7.046;2023-07-08T10:03:34;35.00;1.00
5118;DHT22;2578;51.622;7.046;2023-07-08T10:06:10;34.90;1.00
5118;DHT22;2578;51.622;7.046;2023-07-08T10:08:43;34.60;1.00
5118;DHT22;2578;51.622;7.046;2023-07-08T10:11:29;34.90;1.00
5118;DHT22;2578;51.622;7.046;2023-07-08T10:14:11;34.60;1.00
5118;DHT22;2578;51.622;7.046;2023-07-08T10:16:38;34.60;1.00
5118;DHT22;2578;51.622;7.046;2023-07-08T10:19:16;34.90;1.00
5118;DHT22;2578;51.622;7.046;2023-07-08T10:29:58;36.50;1.00
5118;DHT22;2578;51.622;7.046;2023-07-08T10:35:33;36.60;1.00
5118;DHT22;2578;51.622;7.046;2023-07-08T10:38:55;36.30;1.00
5118;DHT22;2578;51.622;7.046;2023-07-08T10:44:01;36.30;1.00
5118;DHT22;2578;51.622;7.046;2023-07-08T10:57:59;36.90;1.00
5118;DHT22;2578;51.622;7.046;2023-07-08T11:00:43;37.20;1.00
5118;DHT22;2578;51.622;7.046;2023-07-08T11:06:26;36.90;1.00
5118;DHT22;2578;51.622;7.046;2023-07-08T11:08:56;36.50;1.00
5118;DHT22;2578;51.622;7.046;2023-07-08T11:11:34;36.50;1.00
5118;DHT22;2578;51.622;7.046;2023-07-08T11:14:30;37.30;1.00
5118;DHT22;2578;51.622;7.046;2023-07-08T11:17:07;37.40;1.00
5118;DHT22;2578;51.622;7.046;2023-07-08T11:19:40;37.90;1.00
5118;DHT22;2578;51.622;7.046;2023-07-08T11:22:10;37.90;1.00
5118;DHT22;2578;51.622;7.046;2023-07-08T11:24:48;37.60;1.00
5118;DHT22;2578;51.622;7.046;2023-07-08T11:29:59;38.10;1.00
5118;DHT22;2578;51.622;7.046;2023-07-08T11:32:29;38.50;1.00
5118;DHT22;2578;51.622;7.046;2023-07-08T11:34:57;38.70;1.00
5118;DHT22;2578;51.622;7.046;2023-07-08T11:37:24;38.60;1.00
5118;DHT22;2578;51.622;7.046;2023-07-08T11:40:17;38.60;1.00
5118;DHT22;2578;51.622;7.046;2023-07-08T11:42:47;38.60;1.00
5118;DHT22;2578;51.622;7.046;2023-07-08T11:45:27;38.70;1.00
5118;DHT22;2578;51.622;7.046;2023-07-08T11:50:41;38.80;1.00
5118;DHT22;2578;51.622;7.046;2023-07-08T11:53:13;38.90;1.00
5118;DHT22;2578;51.622;7.046;2023-07-08T11:56:00;39.00;1.00
5118;DHT22;2578;51.622;7.046;2023-07-08T11:58:31;39.30;1.00
5118;DHT22;2578;51.622;7.046;2023-07-08T12:01:26;39.50;1.00
5118;DHT22;2578;51.622;7.046;2023-07-08T12:04:01;39.80;1.00
5118;DHT22;2578;51.622;7.046;2023-07-08T12:06:42;40.10;1.00
5118;DHT22;2578;51.622;7.046;2023-07-08T12:09:27;39.80;1.00
5118;DHT22;2578;51.622;7.046;2023-07-08T12:12:41;39.40;1.00
5118;DHT22;2578;51.622;7.046;2023-07-08T12:14:47;38.40;1.00
5118;DHT22;2578;51.622;7.046;2023-07-08T12:17:13;39.10;1.00
5118;DHT22;2578;51.622;7.046;2023-07-08T12:19:42;38.80;1.00
5118;DHT22;2578;51.622;7.046;2023-07-08T12:22:10;38.70;1.00
5118;DHT22;2578;51.622;7.046;2023-07-08T12:24:37;39.10;1.00
5118;DHT22;2578;51.622;7.046;2023-07-08T12:27:03;39.10;1.00
5118;DHT22;2578;51.622;7.046;2023-07-08T12:29:29;39.40;1.00
5118;DHT22;2578;51.622;7.046;2023-07-08T12:31:54;39.80;1.00
5118;DHT22;2578;51.622;7.046;2023-07-08T12:34:27;40.00;1.00
5118;DHT22;2578;51.622;7.046;2023-07-08T12:36:54;40.10;1.00
5118;DHT22;2578;51.622;7.046;2023-07-08T12:39:20;40.10;1.00
5118;DHT22;2578;51.622;7.046;2023-07-08T12:41:46;40.30;1.00
5118;DHT22;2578;51.622;7.046;2023-07-08T12:44:23;40.50;1.00
5118;DHT22;2578;51.622;7.046;2023-07-08T12:46:52;40.60;1.00
5118;DHT22;2578;51.622;7.046;2023-07-08T12:49:19;40.80;1.00
5118;DHT22;2578;51.622;7.046;2023-07-08T12:51:46;40.80;1.00
5118;DHT22;2578;51.622;7.046;2023-07-08T12:54:13;39.50;1.00
5118;DHT22;2578;51.622;7.046;2023-07-08T12:56:42;39.50;1.00
5118;DHT22;2578;51.622;7.046;2023-07-08T12:59:08;39.80;1.00
5118;DHT22;2578;51.622;7.046;2023-07-08T13:01:37;40.30;1.00
5118;DHT22;2578;51.622;7.046;2023-07-08T13:04:10;40.40;1.00
5118;DHT22;2578;51.622;7.046;2023-07-08T13:06:37;40.40;1.00
5118;DHT22;2578;51.622;7.046;2023-07-08T13:11:46;40.20;1.00
5118;DHT22;2578;51.622;7.046;2023-07-08T13:14:12;40.60;1.00
5118;DHT22;2578;51.622;7.046;2023-07-08T13:16:40;40.60;1.00
5118;DHT22;2578;51.622;7.046;2023-07-08T13:19:05;39.70;1.00
5118;DHT22;2578;51.622;7.046;2023-07-08T13:21:32;39.10;1.00
5118;DHT22;2578;51.622;7.046;2023-07-08T13:23:58;39.00;1.00
5118;DHT22;2578;51.622;7.046;2023-07-08T13:26:27;38.70;1.00
5118;DHT22;2578;51.622;7.046;2023-07-08T13:29:03;38.30;1.00
5118;DHT22;2578;51.622;7.046;2023-07-08T13:31:35;38.20;1.00
5118;DHT22;2578;51.622;7.046;2023-07-08T13:34:08;38.50;1.00
5118;DHT22;2578;51.622;7.046;2023-07-08T13:36:39;38.80;1.00
5118;DHT22;2578;51.622;7.046;2023-07-08T13:39:08;39.30;1.00
5118;DHT22;2578;51.622;7.046;2023-07-08T13:41:35;39.60;1.00
5118;DHT22;2578;51.622;7.046;2023-07-08T13:44:08;39.80;1.00
5118;DHT22;2578;51.622;7.046;2023-07-08T13:46:39;40.00;1.00
5118;DHT22;2578;51.622;7.046;2023-07-08T13:51:44;40.50;1.00
5118;DHT22;2578;51.622;7.046;2023-07-08T13:54:23;40.10;1.00
5118;DHT22;2578;51.622;7.046;2023-07-08T13:56:51;40.10;1.00
5118;DHT22;2578;51.622;7.046;2023-07-08T13:59:25;40.30;1.00
5118;DHT22;2578;51.622;7.046;2023-07-08T14:01:53;40.50;1.00
5118;DHT22;2578;51.622;7.046;2023-07-08T14:04:25;40.40;1.00
5118;DHT22;2578;51.622;7.046;2023-07-08T14:06:52;40.40;1.00
5118;DHT22;2578;51.622;7.046;2023-07-08T14:09:20;40.40;1.00
5118;DHT22;2578;51.622;7.046;2023-07-08T14:11:47;40.40;1.00
5118;DHT22;2578;51.622;7.046;2023-07-08T14:14:21;39.40;1.00
5118;DHT22;2578;51.622;7.046;2023-07-08T14:16:52;39.00;1.00
5118;DHT22;2578;51.622;7.046;2023-07-08T14:19:27;38.90;1.00
5118;DHT22;2578;51.622;7.046;2023-07-08T14:21:57;39.00;1.00
5118;DHT22;2578;51.622;7.046;2023-07-08T14:24:24;38.50;1.00
5118;DHT22;2578;51.622;7.046;2023-07-08T14:26:50;38.50;1.00
5118;DHT22;2578;51.622;7.046;2023-07-08T14:29:17;38.50;1.00
5118;DHT22;2578;51.622;7.046;2023-07-08T14:31:43;38.60;1.00
5118;DHT22;2578;51.622;7.046;2023-07-08T14:34:12;38.70;1.00
5118;DHT22;2578;51.622;7.046;2023-07-08T14:36:38;38.70;1.00
5118;DHT22;2578;51.622;7.046;2023-07-08T14:39:11;39.00;1.00
5118;DHT22;2578;51.622;7.046;2023-07-08T14:41:38;39.40;1.00
5118;DHT22;2578;51.622;7.046;2023-07-08T14:49:44;39.10;1.00
5118;DHT22;2578;51.622;7.046;2023-07-08T14:52:13;38.50;1.00
5118;DHT22;2578;51.622;7.046;2023-07-08T14:54:48;38.20;1.00
5118;DHT22;2578;51.622;7.046;2023-07-08T14:57:19;38.20;1.00
5118;DHT22;2578;51.622;7.046;2023-07-08T14:59:45;38.40;1.00
5118;DHT22;2578;51.622;7.046;2023-07-08T15:02:21;38.40;1.00
5118;DHT22;2578;51.622;7.046;2023-07-08T15:04:47;38.60;1.00
5118;DHT22;2578;51.622;7.046;2023-07-08T15:07:13;38.60;1.00
5118;DHT22;2578;51.622;7.046;2023-07-08T15:09:39;38.80;1.00
5118;DHT22;2578;51.622;7.046;2023-07-08T15:12:07;39.10;1.00
5118;DHT22;2578;51.622;7.046;2023-07-08T15:14:34;39.60;1.00
5118;DHT22;2578;51.622;7.046;2023-07-08T15:16:59;39.70;1.00
5118;DHT22;2578;51.622;7.046;2023-07-08T15:19:25;39.80;1.00
5118;DHT22;2578;51.622;7.046;2023-07-08T15:21:51;39.30;1.00
5118;DHT22;2578;51.622;7.046;2023-07-08T15:24:16;37.90;1.00
5118;DHT22;2578;51.622;7.046;2023-07-08T15:26:46;37.80;1.00
5118;DHT22;2578;51.622;7.046;2023-07-08T15:29:22;37.30;1.00
5118;DHT22;2578;51.622;7.046;2023-07-08T15:31:48;36.60;1.00
5118;DHT22;2578;51.622;7.046;2023-07-08T15:34:25;36.70;1.00
5118;DHT22;2578;51.622;7.046;2023-07-08T15:36:50;36.70;1.00
5118;DHT22;2578;51.622;7.046;2023-07-08T15:39:16;37.00;1.00
5118;DHT22;2578;51.622;7.046;2023-07-08T15:41:45;36.60;1.00
5118;DHT22;2578;51.622;7.046;2023-07-08T15:44:12;36.70;1.00
5118;DHT22;2578;51.622;7.046;2023-07-08T15:46:44;36.90;1.00
5118;DHT22;2578;51.622;7.046;2023-07-08T15:49:23;36.90;1.00
5118;DHT22;2578;51.622;7.046;2023-07-08T15:51:49;37.50;1.00
5118;DHT22;2578;51.622;7.046;2023-07-08T15:54:17;38.20;1.00
5118;DHT22;2578;51.622;7.046;2023-07-08T15:56:44;38.30;1.00
5118;DHT22;2578;51.622;7.046;2023-07-08T15:59:15;38.50;1.00
5118;DHT22;2578;51.622;7.046;2023-07-08T16:01:42;38.60;1.00
5118;DHT22;2578;51.622;7.046;2023-07-08T16:04:20;38.90;1.00
5118;DHT22;2578;51.622;7.046;2023-07-08T16:06:47;38.90;1.00
5118;DHT22;2578;51.622;7.046;2023-07-08T16:09:13;39.00;1.00
5118;DHT22;2578;51.622;7.046;2023-07-08T16:11:38;39.10;1.00
5118;DHT22;2578;51.622;7.046;2023-07-08T16:14:04;39.30;1.00
5118;DHT22;2578;51.622;7.046;2023-07-08T16:19:33;38.50;1.00
5118;DHT22;2578;51.622;7.046;2023-07-08T16:22:02;38.30;1.00
5118;DHT22;2578;51.622;7.046;2023-07-08T16:24:32;38.30;1.00
5118;DHT22;2578;51.622;7.046;2023-07-08T16:27:00;38.30;1.00
5118;DHT22;2578;51.622;7.046;2023-07-08T16:29:27;38.20;1.00
5118;DHT22;2578;51.622;7.046;2023-07-08T16:31:53;37.90;1.00
5118;DHT22;2578;51.622;7.046;2023-07-08T16:34:18;37.70;1.00
5118;DHT22;2578;51.622;7.046;2023-07-08T16:36:44;37.70;1.00
5118;DHT22;2578;51.622;7.046;2023-07-08T16:39:18;37.40;1.00
5118;DHT22;2578;51.622;7.046;2023-07-08T16:41:46;37.30;1.00
5118;DHT22;2578;51.622;7.046;2023-07-08T16:44:16;37.10;1.00
5118;DHT22;2578;51.622;7.046;2023-07-08T16:46:43;37.00;1.00
5118;DHT22;2578;51.622;7.046;2023-07-08T16:49:12;36.80;1.00
5118;DHT22;2578;51.622;7.046;2023-07-08T16:51:41;36.50;1.00
5118;DHT22;2578;51.622;7.046;2023-07-08T16:54:25;35.90;1.00
5118;DHT22;2578;51.622;7.046;2023-07-08T16:56:53;35.90;1.00
5118;DHT22;2578;51.622;7.046;2023-07-08T16:59:18;35.50;1.00
5118;DHT22;2578;51.622;7.046;2023-07-08T17:01:45;35.30;1.00
5118;DHT22;2578;51.622;7.046;2023-07-08T17:04:14;34.90;1.00
5118;DHT22;2578;51.622;7.046;2023-07-08T17:06:42;34.90;1.00
5118;DHT22;2578;51.622;7.046;2023-07-08T17:09:11;34.80;1.00
5118;DHT22;2578;51.622;7.046;2023-07-08T17:11:37;34.80;1.00
5118;DHT22;2578;51.622;7.046;2023-07-08T17:14:03;34.80;1.00
5118;DHT22;2578;51.622;7.046;2023-07-08T17:16:32;34.90;1.00
5118;DHT22;2578;51.622;7.046;2023-07-08T17:18:58;35.20;1.00
5118;DHT22;2578;51.622;7.046;2023-07-08T17:21:24;35.20;1.00
5118;DHT22;2578;51.622;7.046;2023-07-08T17:23:50;35.30;1.00
5118;DHT22;2578;51.622;7.046;2023-07-08T17:26:16;35.20;1.00
5118;DHT22;2578;51.622;7.046;2023-07-08T17:28:41;35.50;1.00
5118;DHT22;2578;51.622;7.046;2023-07-08T17:31:15;34.80;1.00
5118;DHT22;2578;51.622;7.046;2023-07-08T17:33:41;34.60;1.00
5118;DHT22;2578;51.622;7.046;2023-07-08T17:36:11;34.30;1.00
5118;DHT22;2578;51.622;7.046;2023-07-08T17:38:48;34.20;1.00
5118;DHT22;2578;51.622;7.046;2023-07-08T17:41:18;34.10;1.00